Terminal Aerodrome Forecast
Issued by NWS

Home | Current Version | Previous Version | Text Only | Print | Product List | Glossary On
Versions: 1 2 3 4 5 6 7 8 9 10 11 12 13 14
000
FTUS45 KRIW 192322
TAFWRL
TAF
KWRL 192322Z 2000/2024 03007KT P6SM OVC200
     FM200300 35009KT P6SM SCT100 OVC150
     FM201400 33012G20KT P6SM SCT020 OVC080=

USA.gov is the U.S. government's official web portal to all federal, state and local government web resources and services.